createdAt,value
2019-02-05T00:00:28.001Z,0.00
2019-02-05T00:01:28.037Z,0.00
2019-02-05T00:02:28.069Z,0.00
2019-02-05T00:03:28.113Z,0.00
2019-02-05T00:04:28.141Z,0.00
2019-02-05T00:05:28.175Z,0.00
2019-02-05T00:06:28.215Z,0.00
2019-02-05T00:07:28.303Z,0.00
2019-02-05T00:08:28.293Z,0.00
2019-02-05T00:09:28.321Z,0.00
2019-02-05T00:10:28.364Z,0.00
2019-02-05T00:11:28.393Z,0.00
2019-02-05T00:12:28.440Z,0.00
2019-02-05T00:13:28.488Z,0.00
2019-02-05T00:14:28.507Z,0.00
2019-02-05T00:15:28.537Z,0.00
2019-02-05T00:16:28.574Z,0.00
2019-02-05T00:17:28.606Z,0.00
2019-02-05T00:18:28.644Z,0.00
2019-02-05T00:19:28.680Z,0.00
2019-02-05T00:20:28.724Z,0.00
2019-02-05T00:21:28.750Z,0.00
2019-02-05T00:22:28.795Z,0.00
2019-02-05T00:23:28.836Z,0.00
2019-02-05T00:24:28.858Z,0.00
2019-02-05T00:25:28.894Z,0.00
2019-02-05T00:26:28.929Z,0.00
2019-02-05T00:27:28.966Z,0.00
2019-02-05T00:28:29.002Z,0.00
2019-02-05T00:29:29.044Z,0.00
2019-02-05T00:30:29.071Z,0.00
2019-02-05T00:31:29.110Z,0.00
2019-02-05T00:32:29.145Z,0.00
2019-02-05T00:33:29.181Z,0.00
2019-02-05T00:34:29.216Z,0.00
2019-02-05T00:35:29.259Z,0.00
2019-02-05T00:36:29.287Z,0.00
2019-02-05T00:37:29.323Z,0.00
2019-02-05T00:38:29.360Z,0.00
2019-02-05T00:39:29.398Z,0.00
2019-02-05T00:40:29.432Z,0.00
2019-02-05T00:41:29.468Z,0.00
2019-02-05T00:42:29.505Z,0.00
2019-02-05T00:43:29.552Z,0.00
2019-02-05T00:44:29.575Z,0.00
2019-02-05T00:45:29.611Z,0.00
2019-02-05T00:46:29.651Z,0.00
2019-02-05T00:47:32.223Z,0.00
2019-02-05T00:48:29.722Z,0.00
2019-02-05T00:49:29.753Z,0.00
2019-02-05T00:50:29.790Z,0.00
2019-02-05T00:51:29.840Z,0.00
2019-02-05T00:52:29.867Z,0.00
2019-02-05T00:53:29.897Z,0.00
2019-02-05T00:54:29.934Z,0.00
2019-02-05T00:55:29.974Z,0.00
2019-02-05T00:56:30.006Z,0.00
2019-02-05T00:57:30.039Z,0.00
2019-02-05T00:58:30.078Z,0.00
2019-02-05T00:59:30.123Z,0.00
2019-02-05T01:00:30.153Z,0.00
2019-02-05T01:01:30.186Z,0.00
2019-02-05T01:02:30.220Z,0.00
2019-02-05T01:03:30.257Z,0.00
2019-02-05T01:04:30.294Z,0.00
2019-02-05T01:05:30.358Z,0.00
2019-02-05T01:06:30.370Z,0.00
2019-02-05T01:07:30.400Z,0.00
2019-02-05T01:08:30.438Z,0.00
2019-02-05T01:09:30.476Z,0.00
2019-02-05T01:10:30.521Z,0.00
2019-02-05T01:11:30.550Z,0.00
2019-02-05T01:12:30.584Z,0.00
2019-02-05T01:13:30.615Z,0.00
2019-02-05T01:14:30.651Z,0.00
2019-02-05T01:15:30.688Z,0.00
2019-02-05T01:16:30.723Z,0.00
2019-02-05T01:17:30.813Z,0.00
2019-02-05T01:18:30.797Z,0.00
2019-02-05T01:19:30.833Z,0.00
2019-02-05T01:20:30.868Z,0.00
2019-02-05T01:21:30.904Z,0.00
2019-02-05T01:22:30.942Z,0.00
2019-02-05T01:23:30.974Z,0.00
2019-02-05T01:24:31.012Z,0.00
2019-02-05T01:25:31.046Z,0.00
2019-02-05T01:26:31.084Z,0.00
2019-02-05T01:27:31.119Z,0.00
2019-02-05T01:28:31.162Z,0.00
2019-02-05T01:29:31.189Z,0.00
2019-02-05T01:30:31.228Z,0.00
2019-02-05T01:31:31.366Z,0.00
2019-02-05T01:32:31.298Z,0.00
2019-02-05T01:33:31.334Z,0.00
2019-02-05T01:34:31.370Z,0.00
2019-02-05T01:35:31.414Z,0.00
2019-02-05T01:36:31.443Z,0.00
2019-02-05T01:37:31.480Z,0.00
2019-02-05T01:38:31.515Z,0.00
2019-02-05T01:39:31.550Z,0.00
2019-02-05T01:40:31.586Z,0.00
2019-02-05T01:41:31.621Z,0.00
2019-02-05T01:42:31.658Z,0.00
2019-02-05T01:43:31.693Z,0.00
2019-02-05T01:44:31.730Z,0.00
2019-02-05T01:45:31.765Z,0.00
2019-02-05T01:46:31.803Z,0.00
2019-02-05T01:47:31.842Z,0.00
2019-02-05T01:48:31.927Z,0.00
2019-02-05T01:49:31.911Z,0.00
2019-02-05T01:50:31.949Z,0.00
2019-02-05T01:51:31.982Z,0.00
2019-02-05T01:52:32.021Z,0.00
2019-02-05T01:53:32.061Z,0.00
2019-02-05T01:54:32.091Z,0.00
2019-02-05T01:55:32.141Z,0.00
2019-02-05T01:56:40.453Z,0.00
2019-02-05T01:57:32.198Z,0.00
2019-02-05T01:58:32.232Z,0.00
2019-02-05T01:59:32.269Z,0.00
2019-02-05T02:00:32.308Z,0.00
2019-02-05T02:01:32.342Z,0.00
2019-02-05T02:02:32.379Z,0.00
2019-02-05T02:03:32.414Z,0.00
2019-02-05T02:04:32.450Z,0.00
2019-02-05T02:05:32.485Z,0.00
2019-02-05T02:06:32.528Z,0.00
2019-02-05T02:07:32.560Z,0.00
2019-02-05T02:08:32.596Z,0.00
2019-02-05T02:09:32.628Z,0.00
2019-02-05T02:10:32.665Z,0.00
2019-02-05T02:11:32.702Z,0.00
2019-02-05T02:12:32.738Z,0.00
2019-02-05T02:13:32.773Z,0.00
2019-02-05T02:14:32.819Z,0.00
2019-02-05T02:15:32.854Z,0.00
2019-02-05T02:16:32.881Z,0.00
2019-02-05T02:17:32.935Z,0.00
2019-02-05T02:18:32.952Z,0.00
2019-02-05T02:19:32.989Z,0.00
2019-02-05T02:20:33.032Z,0.00
2019-02-05T02:21:33.059Z,0.00
2019-02-05T02:22:33.095Z,0.00
2019-02-05T02:23:33.130Z,0.00
2019-02-05T02:24:33.166Z,0.00
2019-02-05T02:25:33.210Z,0.00
2019-02-05T02:26:33.240Z,0.00
2019-02-05T02:27:33.274Z,0.00
2019-02-05T02:28:33.310Z,0.00
2019-02-05T02:29:33.345Z,0.00
2019-02-05T02:30:33.382Z,0.00
2019-02-05T02:31:33.417Z,0.00
2019-02-05T02:32:33.459Z,0.00
2019-02-05T02:33:33.489Z,0.00
2019-02-05T02:34:33.529Z,0.00
2019-02-05T02:35:33.558Z,0.00
2019-02-05T02:36:33.593Z,0.00
2019-02-05T02:37:33.634Z,0.00
2019-02-05T02:38:33.665Z,0.00
2019-02-05T02:39:33.702Z,0.00
2019-02-05T02:40:33.736Z,0.00
2019-02-05T02:41:33.787Z,0.00
2019-02-05T02:42:33.807Z,0.00
2019-02-05T02:43:33.853Z,0.00
2019-02-05T02:44:33.896Z,0.00
2019-02-05T02:45:33.967Z,0.00
2019-02-05T02:46:33.951Z,0.00
2019-02-05T02:47:33.987Z,0.00
2019-02-05T02:48:34.136Z,0.00
2019-02-05T02:49:34.066Z,0.00
2019-02-05T02:50:34.095Z,0.00
2019-02-05T02:51:34.128Z,0.00
2019-02-05T02:52:34.167Z,0.00
2019-02-05T02:53:34.209Z,0.00
2019-02-05T02:54:34.239Z,0.00
2019-02-05T02:55:34.280Z,0.00
2019-02-05T02:56:34.323Z,0.00
2019-02-05T02:57:34.348Z,0.00
2019-02-05T02:58:34.378Z,0.00
2019-02-05T02:59:34.415Z,0.00
2019-02-05T03:00:34.456Z,0.00
2019-02-05T03:01:34.491Z,0.00
2019-02-05T03:02:34.521Z,0.00
2019-02-05T03:03:34.557Z,0.00
2019-02-05T03:04:34.591Z,0.00
2019-02-05T03:05:34.626Z,0.00
2019-02-05T03:06:34.663Z,0.00
2019-02-05T03:07:34.699Z,0.00
2019-02-05T03:08:34.737Z,0.00
2019-02-05T03:09:34.768Z,0.00
2019-02-05T03:10:34.805Z,0.00
2019-02-05T03:11:34.843Z,0.00
2019-02-05T03:12:34.878Z,0.00
2019-02-05T03:13:34.913Z,0.00
2019-02-05T03:14:34.961Z,0.00
2019-02-05T03:15:34.982Z,0.00
2019-02-05T03:16:35.020Z,0.00
2019-02-05T03:17:35.054Z,0.00
2019-02-05T03:18:35.093Z,0.00
2019-02-05T03:19:35.126Z,0.00
2019-02-05T03:20:35.165Z,0.00
2019-02-05T03:21:35.198Z,0.00
2019-02-05T03:22:35.234Z,0.00
2019-02-05T03:23:35.272Z,0.00
2019-02-05T03:24:35.307Z,0.00
2019-02-05T03:25:35.345Z,0.00
2019-02-05T03:26:35.379Z,0.00
2019-02-05T03:27:35.413Z,0.00
2019-02-05T03:28:35.450Z,0.00
2019-02-05T03:29:35.491Z,0.00
2019-02-05T03:30:35.521Z,0.00
2019-02-05T03:31:35.560Z,0.00
2019-02-05T03:32:35.718Z,0.00
2019-02-05T03:33:35.647Z,0.00
2019-02-05T03:34:35.665Z,0.00
2019-02-05T03:35:35.701Z,0.00
2019-02-05T03:36:35.742Z,0.00
2019-02-05T03:37:35.771Z,0.00
2019-02-05T03:38:35.807Z,0.00
2019-02-05T03:39:35.845Z,0.00
2019-02-05T03:40:35.879Z,0.00
2019-02-05T03:41:35.915Z,0.00
2019-02-05T03:42:35.952Z,0.00
2019-02-05T03:43:35.990Z,0.00
2019-02-05T03:44:36.023Z,0.00
2019-02-05T03:45:36.057Z,0.00
2019-02-05T03:46:36.093Z,0.00
2019-02-05T03:47:36.129Z,0.00
2019-02-05T03:48:36.166Z,0.00
2019-02-05T03:49:36.201Z,0.00
2019-02-05T03:50:36.363Z,0.00
2019-02-05T03:51:36.284Z,0.00
2019-02-05T03:52:36.309Z,0.00
2019-02-05T03:53:36.344Z,0.00
2019-02-05T03:54:36.381Z,0.00
2019-02-05T03:55:36.418Z,0.00
2019-02-05T03:56:36.452Z,0.00
2019-02-05T03:57:36.487Z,0.00
2019-02-05T03:58:36.524Z,0.00
2019-02-05T03:59:36.559Z,0.00
2019-02-05T04:00:36.611Z,0.00
2019-02-05T04:01:36.631Z,0.00
2019-02-05T04:02:36.670Z,0.00
2019-02-05T04:03:36.709Z,0.00
2019-02-05T04:04:36.738Z,0.00
2019-02-05T04:05:36.776Z,0.00
2019-02-05T04:06:36.808Z,0.00
2019-02-05T04:07:36.846Z,0.00
2019-02-05T04:08:36.933Z,0.00
2019-02-05T04:09:36.916Z,0.00
2019-02-05T04:10:36.954Z,0.00
2019-02-05T04:11:36.991Z,0.00
2019-02-05T04:12:37.025Z,0.00
2019-02-05T04:13:37.059Z,0.00
2019-02-05T04:14:37.094Z,0.00
2019-02-05T04:15:37.132Z,0.00
2019-02-05T04:16:37.169Z,0.00
2019-02-05T04:17:37.202Z,0.00
2019-02-05T04:18:37.253Z,0.00
2019-02-05T04:19:37.273Z,0.00
2019-02-05T04:20:37.311Z,0.00
2019-02-05T04:21:37.348Z,0.00
2019-02-05T04:22:37.382Z,0.00
2019-02-05T04:23:37.424Z,0.00
2019-02-05T04:24:37.458Z,0.00
2019-02-05T04:25:37.489Z,0.00
2019-02-05T04:26:37.630Z,0.00
2019-02-05T04:27:45.144Z,0.00
2019-02-05T04:28:37.597Z,0.00
2019-02-05T04:29:37.631Z,0.00
2019-02-05T04:30:37.670Z,0.00
2019-02-05T04:31:37.707Z,0.00
2019-02-05T04:32:37.897Z,0.00
2019-02-05T04:33:37.775Z,0.00
2019-02-05T04:34:37.811Z,0.00
2019-02-05T04:35:37.847Z,0.00
2019-02-05T04:36:37.893Z,0.00
2019-02-05T04:37:37.920Z,0.00
2019-02-05T04:38:37.957Z,0.00
2019-02-05T04:39:37.991Z,0.00
2019-02-05T04:40:38.028Z,0.00
2019-02-05T04:41:38.066Z,0.00
2019-02-05T04:42:38.100Z,0.00
2019-02-05T04:43:38.136Z,0.00
2019-02-05T04:44:38.173Z,0.00
2019-02-05T04:45:38.206Z,0.00
2019-02-05T04:46:38.243Z,0.00
2019-02-05T04:47:38.281Z,0.00
2019-02-05T04:48:38.316Z,0.00
2019-02-05T04:49:38.349Z,0.00
2019-02-05T04:50:38.386Z,0.00
2019-02-05T04:51:38.474Z,0.00
2019-02-05T04:52:38.458Z,0.00
2019-02-05T04:53:38.502Z,0.00
2019-02-05T04:54:38.531Z,0.00
2019-02-05T04:55:38.658Z,0.00
2019-02-05T04:56:38.603Z,0.00
2019-02-05T04:57:38.643Z,0.00
2019-02-05T04:58:38.675Z,0.00
2019-02-05T04:59:38.718Z,0.00
2019-02-05T05:00:38.746Z,0.00
2019-02-05T05:01:38.782Z,0.00
2019-02-05T05:02:38.818Z,0.00
2019-02-05T05:03:38.852Z,0.00
2019-02-05T05:04:38.891Z,0.00
2019-02-05T05:05:38.925Z,0.00
2019-02-05T05:06:38.963Z,0.00
2019-02-05T05:07:39.007Z,0.00
2019-02-05T05:08:39.033Z,0.00
2019-02-05T05:09:39.073Z,0.00
2019-02-05T05:10:39.111Z,0.00
2019-02-05T05:11:41.100Z,0.00
2019-02-05T05:12:39.177Z,0.00
2019-02-05T05:13:39.213Z,0.00
2019-02-05T05:14:39.251Z,0.00
2019-02-05T05:15:39.286Z,0.00
2019-02-05T05:16:39.324Z,0.00
2019-02-05T05:17:39.357Z,0.00
2019-02-05T05:18:39.394Z,0.00
2019-02-05T05:19:39.433Z,0.00
2019-02-05T05:20:39.467Z,0.00
2019-02-05T05:21:39.503Z,0.00
2019-02-05T05:22:39.538Z,0.00
2019-02-05T05:23:39.585Z,0.00
2019-02-05T05:24:39.610Z,0.00
2019-02-05T05:25:39.646Z,0.00
2019-02-05T05:26:39.681Z,0.00
2019-02-05T05:27:39.717Z,0.00
2019-02-05T05:28:39.758Z,0.00
2019-02-05T05:29:39.791Z,0.00
2019-02-05T05:30:39.825Z,0.00
2019-02-05T05:31:39.864Z,0.00
2019-02-05T05:32:39.897Z,0.00
2019-02-05T05:33:39.934Z,0.00
2019-02-05T05:34:39.972Z,0.00
2019-02-05T05:35:44.236Z,0.00
2019-02-05T05:36:40.043Z,0.00
2019-02-05T05:37:40.129Z,0.00
2019-02-05T05:38:40.114Z,0.00
2019-02-05T05:39:40.151Z,0.00
2019-02-05T05:40:40.213Z,0.00
2019-02-05T05:41:40.223Z,0.00
2019-02-05T05:42:40.259Z,0.00
2019-02-05T05:43:40.299Z,0.00
2019-02-05T05:44:40.339Z,0.00
2019-02-05T05:45:40.366Z,0.00
2019-02-05T05:46:40.402Z,0.00
2019-02-05T05:47:40.437Z,0.00
2019-02-05T05:48:40.475Z,0.00
2019-02-05T05:49:40.511Z,0.00
2019-02-05T05:50:40.556Z,0.00
2019-02-05T05:51:40.582Z,0.00
2019-02-05T05:52:40.627Z,0.00
2019-02-05T05:53:40.666Z,0.00
2019-02-05T05:54:40.691Z,0.00
2019-02-05T05:55:40.727Z,0.00
2019-02-05T05:56:40.762Z,0.00
2019-02-05T05:57:40.798Z,0.00
2019-02-05T05:58:40.843Z,0.00
2019-02-05T05:59:40.876Z,0.00
2019-02-05T06:00:40.906Z,0.00
2019-02-05T06:01:40.942Z,0.00
2019-02-05T06:02:40.980Z,0.00
2019-02-05T06:03:41.017Z,0.00
2019-02-05T06:04:41.051Z,0.00
2019-02-05T06:05:41.087Z,0.00
2019-02-05T06:06:41.253Z,0.00
2019-02-05T06:07:41.159Z,0.00
2019-02-05T06:08:41.194Z,0.00
2019-02-05T06:09:41.230Z,0.00
2019-02-05T06:10:41.284Z,0.00
2019-02-05T06:11:41.310Z,0.00
2019-02-05T06:12:41.347Z,0.00
2019-02-05T06:13:41.375Z,0.00
2019-02-05T06:14:41.419Z,0.00
2019-02-05T06:15:41.453Z,0.00
2019-02-05T06:16:41.487Z,0.00
2019-02-05T06:17:41.519Z,0.00
2019-02-05T06:18:41.556Z,0.00
2019-02-05T06:19:41.593Z,0.00
2019-02-05T06:20:41.628Z,0.00
2019-02-05T06:21:41.663Z,0.00
2019-02-05T06:22:41.698Z,0.00
2019-02-05T06:23:41.737Z,0.00
2019-02-05T06:24:41.772Z,4.00
2019-02-05T06:25:41.811Z,0.00
2019-02-05T06:26:41.843Z,0.00
2019-02-05T06:27:41.878Z,4.00
2019-02-05T06:28:41.917Z,4.00
2019-02-05T06:29:41.952Z,4.00
2019-02-05T06:30:41.987Z,4.00
2019-02-05T06:31:42.021Z,8.00
2019-02-05T06:32:42.058Z,8.00
2019-02-05T06:33:42.102Z,8.00
2019-02-05T06:34:42.131Z,12.00
2019-02-05T06:35:42.168Z,12.00
2019-02-05T06:36:42.205Z,16.00
2019-02-05T06:37:42.240Z,16.00
2019-02-05T06:38:44.560Z,20.00
2019-02-05T06:39:42.315Z,20.00
2019-02-05T06:40:42.365Z,28.00
2019-02-05T06:41:42.389Z,32.00
2019-02-05T06:42:42.420Z,32.00
2019-02-05T06:43:42.467Z,36.00
2019-02-05T06:44:42.500Z,44.00
2019-02-05T06:45:42.528Z,48.00
2019-02-05T06:46:42.564Z,56.00
2019-02-05T06:47:42.604Z,64.00
2019-02-05T06:48:42.636Z,68.00
2019-02-05T06:49:42.673Z,76.00
2019-02-05T06:50:42.706Z,92.00
2019-02-05T06:51:42.745Z,100.00
2019-02-05T06:52:42.782Z,108.00
2019-02-05T06:53:42.916Z,112.00
2019-02-05T06:54:42.853Z,116.00
2019-02-05T06:55:42.889Z,124.00
2019-02-05T06:56:42.926Z,132.00
2019-02-05T06:57:42.960Z,144.00
2019-02-05T06:58:46.434Z,160.00
2019-02-05T06:59:43.038Z,172.00
2019-02-05T07:00:43.073Z,196.00
2019-02-05T07:01:43.104Z,220.00
2019-02-05T07:02:43.142Z,236.00
2019-02-05T07:03:43.180Z,244.00
2019-02-05T07:04:43.216Z,244.00
2019-02-05T07:05:43.251Z,252.00
2019-02-05T07:06:43.288Z,272.00
2019-02-05T07:07:43.322Z,296.00
2019-02-05T07:08:43.361Z,328.00
2019-02-05T07:09:43.397Z,348.00
2019-02-05T07:10:43.434Z,372.00
2019-02-05T07:11:43.467Z,400.00
2019-02-05T07:12:43.504Z,444.00
2019-02-05T07:13:43.547Z,492.00
2019-02-05T07:14:43.576Z,524.00
2019-02-05T07:15:43.611Z,568.00
2019-02-05T07:16:43.648Z,640.00
2019-02-05T07:17:49.943Z,716.00
2019-02-05T07:18:43.729Z,808.00
2019-02-05T07:19:43.757Z,900.00
2019-02-05T07:20:43.795Z,960.00
2019-02-05T07:21:43.830Z,976.00
2019-02-05T07:22:43.869Z,1024.00
2019-02-05T07:23:43.905Z,1092.00
2019-02-05T07:24:43.940Z,1160.00
2019-02-05T07:25:43.974Z,1200.00
2019-02-05T07:26:44.010Z,1204.00
2019-02-05T07:27:44.049Z,1200.00
2019-02-05T07:28:44.086Z,1240.00
2019-02-05T07:29:44.119Z,1284.00
2019-02-05T07:30:44.156Z,1348.00
2019-02-05T07:31:44.196Z,1464.00
2019-02-05T07:32:44.227Z,1612.00
2019-02-05T07:33:44.271Z,1872.00
2019-02-05T07:34:44.301Z,1988.00
2019-02-05T07:35:44.345Z,1888.00
2019-02-05T07:36:44.374Z,1788.00
2019-02-05T07:37:44.416Z,1664.00
2019-02-05T07:38:44.445Z,1636.00
2019-02-05T07:39:44.496Z,1660.00
2019-02-05T07:40:44.517Z,1756.00
2019-02-05T07:41:44.554Z,1876.00
2019-02-05T07:42:44.590Z,1820.00
2019-02-05T07:43:44.627Z,1628.00
2019-02-05T07:44:44.668Z,1372.00
2019-02-05T07:45:44.701Z,1196.00
2019-02-05T07:46:44.738Z,1160.00
2019-02-05T07:47:44.772Z,1248.00
2019-02-05T07:48:44.808Z,1468.00
2019-02-05T07:49:44.849Z,1856.00
2019-02-05T07:50:44.883Z,2048.00
2019-02-05T07:51:44.927Z,1904.00
2019-02-05T07:52:44.959Z,1844.00
2019-02-05T07:53:44.992Z,1900.00
2019-02-05T07:54:45.027Z,2204.00
2019-02-05T07:55:45.063Z,2536.00
2019-02-05T07:56:45.101Z,2720.00
2019-02-05T07:57:45.136Z,2760.00
2019-02-05T07:58:45.176Z,2656.00
2019-02-05T07:59:47.062Z,2412.00
2019-02-05T08:00:45.247Z,2176.00
2019-02-05T08:01:45.306Z,2128.00
2019-02-05T08:02:45.319Z,2172.00
2019-02-05T08:03:45.355Z,2328.00
2019-02-05T08:04:45.393Z,2496.00
2019-02-05T08:05:45.426Z,2392.00
2019-02-05T08:06:45.464Z,2188.00
2019-02-05T08:07:45.500Z,2208.00
2019-02-05T08:08:45.538Z,2536.00
2019-02-05T08:09:45.572Z,3000.00
2019-02-05T08:10:45.619Z,2912.00
2019-02-05T08:11:45.646Z,2556.00
2019-02-05T08:12:45.686Z,2448.00
2019-02-05T08:13:45.719Z,2648.00
2019-02-05T08:14:45.757Z,3060.00
2019-02-05T08:15:45.795Z,3204.00
2019-02-05T08:16:47.818Z,2952.00
2019-02-05T08:17:45.875Z,2596.00
2019-02-05T08:18:45.905Z,2456.00
2019-02-05T08:19:45.940Z,2628.00
2019-02-05T08:20:45.983Z,2856.00
2019-02-05T08:21:46.012Z,3064.00
2019-02-05T08:22:46.049Z,3056.00
2019-02-05T08:23:46.086Z,2848.00
2019-02-05T08:24:46.123Z,2708.00
2019-02-05T08:25:46.162Z,2716.00
2019-02-05T08:26:46.196Z,2872.00
2019-02-05T08:27:46.232Z,2872.00
2019-02-05T08:28:46.271Z,2756.00
2019-02-05T08:29:46.309Z,2696.00
2019-02-05T08:30:46.342Z,2748.00
2019-02-05T08:31:46.385Z,2852.00
2019-02-05T08:32:46.418Z,2884.00
2019-02-05T08:33:46.452Z,2688.00
2019-02-05T08:34:46.488Z,2800.00
2019-02-05T08:35:46.528Z,3144.00
2019-02-05T08:36:46.562Z,2988.00
2019-02-05T08:37:46.615Z,2776.00
2019-02-05T08:38:46.633Z,2796.00
2019-02-05T08:39:46.675Z,2952.00
2019-02-05T08:40:46.710Z,2808.00
2019-02-05T08:41:46.744Z,2812.00
2019-02-05T08:42:46.782Z,2956.00
2019-02-05T08:43:46.819Z,2952.00
2019-02-05T08:44:46.855Z,3104.00
2019-02-05T08:45:56.346Z,3012.00
2019-02-05T08:46:46.928Z,3040.00
2019-02-05T08:47:46.966Z,3116.00
2019-02-05T08:48:47.008Z,2868.00
2019-02-05T08:49:47.037Z,2872.00
2019-02-05T08:50:47.074Z,3052.00
2019-02-05T08:51:47.111Z,2800.00
2019-02-05T08:52:47.149Z,2748.00
2019-02-05T08:53:47.184Z,3192.00
2019-02-05T08:54:47.223Z,3424.00
2019-02-05T08:55:47.259Z,3416.00
2019-02-05T08:56:47.294Z,3756.00
2019-02-05T08:57:47.338Z,4044.00
2019-02-05T08:58:47.367Z,3720.00
2019-02-05T08:59:47.406Z,3468.00
2019-02-05T09:00:47.447Z,3636.00
2019-02-05T09:01:47.486Z,3560.00
2019-02-05T09:02:47.515Z,3504.00
2019-02-05T09:03:47.554Z,3944.00
2019-02-05T09:04:47.589Z,4636.00
2019-02-05T09:05:47.625Z,4844.00
2019-02-05T09:06:47.662Z,4692.00
2019-02-05T09:07:47.701Z,5124.00
2019-02-05T09:08:47.742Z,5396.00
2019-02-05T09:09:47.770Z,4816.00
2019-02-05T09:10:47.808Z,4352.00
2019-02-05T09:11:47.847Z,4004.00
2019-02-05T09:12:47.882Z,3488.00
2019-02-05T09:13:47.919Z,3424.00
2019-02-05T09:14:48.055Z,3660.00
2019-02-05T09:15:47.991Z,3752.00
2019-02-05T09:16:48.029Z,3816.00
2019-02-05T09:17:48.065Z,3736.00
2019-02-05T09:18:48.103Z,3756.00
2019-02-05T09:19:48.140Z,3876.00
2019-02-05T09:20:48.176Z,4028.00
2019-02-05T09:21:48.227Z,4032.00
2019-02-05T09:22:48.250Z,3960.00
2019-02-05T09:23:48.288Z,4184.00
2019-02-05T09:24:48.333Z,4152.00
2019-02-05T09:25:48.361Z,4236.00
2019-02-05T09:26:48.398Z,4168.00
2019-02-05T09:27:48.433Z,4120.00
2019-02-05T09:28:48.473Z,3852.00
2019-02-05T09:29:48.509Z,3604.00
2019-02-05T09:30:48.546Z,3620.00
2019-02-05T09:31:48.583Z,3960.00
2019-02-05T09:32:48.620Z,4344.00
2019-02-05T09:33:48.662Z,4396.00
2019-02-05T09:34:48.704Z,4768.00
2019-02-05T09:35:48.732Z,5184.00
2019-02-05T09:36:48.768Z,5064.00
2019-02-05T09:37:48.806Z,4600.00
2019-02-05T09:38:48.848Z,4136.00
2019-02-05T09:39:48.879Z,4144.00
2019-02-05T09:40:48.919Z,3956.00
2019-02-05T09:41:48.957Z,4104.00
2019-02-05T09:42:48.989Z,5056.00
2019-02-05T09:43:49.026Z,6092.00
2019-02-05T09:44:49.070Z,6460.00
2019-02-05T09:45:49.104Z,5868.00
2019-02-05T09:46:49.146Z,5124.00
2019-02-05T09:47:49.184Z,4848.00
2019-02-05T09:48:49.214Z,4920.00
2019-02-05T09:49:49.256Z,4960.00
2019-02-05T09:50:49.287Z,4760.00
2019-02-05T09:51:49.334Z,4692.00
2019-02-05T09:52:49.363Z,4848.00
2019-02-05T09:53:49.402Z,4940.00
2019-02-05T09:54:49.439Z,5012.00
2019-02-05T09:55:49.474Z,5048.00
2019-02-05T09:56:49.510Z,5212.00
2019-02-05T09:57:49.547Z,5264.00
2019-02-05T09:58:49.587Z,5008.00
2019-02-05T09:59:49.625Z,4824.00
2019-02-05T10:00:49.816Z,4852.00
2019-02-05T10:01:49.706Z,4936.00
2019-02-05T10:02:49.752Z,5016.00
2019-02-05T10:03:49.777Z,4856.00
2019-02-05T10:04:49.930Z,4896.00
2019-02-05T10:05:49.850Z,4940.00
2019-02-05T10:06:50.230Z,4912.00
2019-02-05T10:07:49.925Z,4856.00
2019-02-05T10:08:49.964Z,4496.00
2019-02-05T10:09:50.000Z,4448.00
2019-02-05T10:10:50.035Z,4992.00
2019-02-05T10:11:50.076Z,5972.00
2019-02-05T10:12:50.112Z,6448.00
2019-02-05T10:13:50.150Z,6404.00
2019-02-05T10:14:50.239Z,6376.00
2019-02-05T10:15:50.223Z,6512.00
2019-02-05T10:16:50.271Z,6596.00
2019-02-05T10:17:50.299Z,6024.00
2019-02-05T10:18:50.337Z,5440.00
2019-02-05T10:19:50.373Z,5916.00
2019-02-05T10:20:50.419Z,5664.00
2019-02-05T10:21:50.455Z,5392.00
2019-02-05T10:22:50.494Z,5236.00
2019-02-05T10:23:50.523Z,5032.00
2019-02-05T10:24:50.569Z,5344.00
2019-02-05T10:25:50.600Z,5616.00
2019-02-05T10:26:50.637Z,5796.00
2019-02-05T10:27:50.682Z,5588.00
2019-02-05T10:28:50.716Z,5908.00
2019-02-05T10:29:59.299Z,5676.00
2019-02-05T10:30:50.788Z,5308.00
2019-02-05T10:31:50.829Z,5480.00
2019-02-05T10:32:50.864Z,5704.00
2019-02-05T10:33:55.226Z,5840.00
2019-02-05T10:34:50.937Z,6072.00
2019-02-05T10:35:50.980Z,6188.00
2019-02-05T10:36:51.015Z,6224.00
2019-02-05T10:37:51.052Z,5792.00
2019-02-05T10:38:51.141Z,5852.00
2019-02-05T10:39:51.129Z,5732.00
2019-02-05T10:40:51.167Z,5520.00
2019-02-05T10:41:51.203Z,4952.00
2019-02-05T10:42:51.239Z,4588.00
2019-02-05T10:43:51.279Z,4412.00
2019-02-05T10:44:51.318Z,4452.00
2019-02-05T10:45:51.353Z,4920.00
2019-02-05T10:46:51.390Z,5460.00
2019-02-05T10:47:51.432Z,5732.00
2019-02-05T10:48:51.467Z,5368.00
2019-02-05T10:49:51.504Z,5140.00
2019-02-05T10:50:51.555Z,6120.00
2019-02-05T10:51:51.595Z,6996.00
2019-02-05T10:52:51.618Z,7232.00
2019-02-05T10:53:51.654Z,7176.00
2019-02-05T10:54:51.693Z,8092.00
2019-02-05T10:55:51.729Z,8380.00
2019-02-05T10:56:51.771Z,7672.00
2019-02-05T10:57:51.804Z,6668.00
2019-02-05T10:58:51.842Z,6128.00
2019-02-05T10:59:54.361Z,5768.00
2019-02-05T11:00:51.919Z,5960.00
2019-02-05T11:01:51.962Z,6680.00
2019-02-05T11:02:51.995Z,6732.00
2019-02-05T11:03:52.034Z,6876.00
2019-02-05T11:04:52.070Z,7028.00
2019-02-05T11:05:52.116Z,7088.00
2019-02-05T11:06:52.158Z,6744.00
2019-02-05T11:07:52.183Z,6376.00
2019-02-05T11:08:52.222Z,6220.00
2019-02-05T11:09:52.258Z,5664.00
2019-02-05T11:10:52.301Z,5104.00
2019-02-05T11:11:52.343Z,5092.00
2019-02-05T11:12:52.380Z,5092.00
2019-02-05T11:13:52.411Z,5180.00
2019-02-05T11:14:52.458Z,5356.00
2019-02-05T11:15:52.487Z,5636.00
2019-02-05T11:16:52.525Z,6176.00
2019-02-05T11:17:52.562Z,6800.00
2019-02-05T11:18:52.700Z,7016.00
2019-02-05T11:19:52.638Z,6792.00
2019-02-05T11:20:52.676Z,7040.00
2019-02-05T11:21:52.713Z,7136.00
2019-02-05T11:22:52.756Z,7432.00
2019-02-05T11:23:52.796Z,7736.00
2019-02-05T11:24:52.830Z,7700.00
2019-02-05T11:25:52.903Z,7604.00
2019-02-05T11:26:52.912Z,7676.00
2019-02-05T11:27:52.942Z,7864.00
2019-02-05T11:28:52.989Z,7956.00
2019-02-05T11:29:53.020Z,8144.00
2019-02-05T11:30:53.172Z,8336.00
2019-02-05T11:31:53.095Z,8404.00
2019-02-05T11:32:53.281Z,8288.00
2019-02-05T11:33:53.170Z,7972.00
2019-02-05T11:34:53.209Z,7868.00
2019-02-05T11:35:53.250Z,8104.00
2019-02-05T11:36:53.298Z,8276.00
2019-02-05T11:37:53.324Z,8176.00
2019-02-05T11:38:53.362Z,7984.00
2019-02-05T11:39:53.405Z,7792.00
2019-02-05T11:40:53.441Z,7552.00
2019-02-05T11:41:53.480Z,7628.00
2019-02-05T11:42:53.516Z,7972.00
2019-02-05T11:43:53.554Z,8204.00
2019-02-05T11:44:53.624Z,8240.00
2019-02-05T11:45:53.632Z,8252.00
2019-02-05T11:46:53.682Z,8116.00
2019-02-05T11:47:53.716Z,7968.00
2019-02-05T11:48:53.752Z,8100.00
2019-02-05T11:49:53.792Z,8208.00
2019-02-05T11:50:53.825Z,8360.00
2019-02-05T11:51:53.866Z,8480.00
2019-02-05T11:52:53.899Z,8492.00
2019-02-05T11:53:53.939Z,8340.00
2019-02-05T11:54:53.975Z,8416.00
2019-02-05T11:55:54.019Z,8540.00
2019-02-05T11:56:54.084Z,8328.00
2019-02-05T11:57:54.104Z,7964.00
2019-02-05T11:58:54.138Z,7720.00
2019-02-05T11:59:54.182Z,7908.00
2019-02-05T12:00:54.213Z,8232.00
2019-02-05T12:01:54.455Z,8700.00
2019-02-05T12:02:54.284Z,8992.00
2019-02-05T12:03:54.377Z,9056.00
2019-02-05T12:04:54.414Z,9120.00
2019-02-05T12:05:54.468Z,9048.00
2019-02-05T12:06:54.704Z,9304.00
2019-02-05T12:07:54.477Z,9736.00
2019-02-05T12:08:54.516Z,9992.00
2019-02-05T12:09:54.553Z,9920.00
2019-02-05T12:10:54.591Z,9320.00
2019-02-05T12:11:54.635Z,8596.00
2019-02-05T12:12:54.668Z,8248.00
2019-02-05T12:13:54.706Z,8536.00
2019-02-05T12:14:54.746Z,8872.00
2019-02-05T12:15:54.793Z,9000.00
2019-02-05T12:16:54.832Z,8756.00
2019-02-05T12:17:54.860Z,8448.00
2019-02-05T12:18:54.902Z,8344.00
2019-02-05T12:19:55.686Z,8384.00
2019-02-05T12:20:54.977Z,8500.00
2019-02-05T12:21:55.027Z,8316.00
2019-02-05T12:22:55.055Z,8388.00
2019-02-05T12:23:55.092Z,8576.00
2019-02-05T12:24:55.133Z,8948.00
2019-02-05T12:25:55.177Z,8912.00
2019-02-05T12:26:55.208Z,8916.00
2019-02-05T12:27:55.248Z,8936.00
2019-02-05T12:28:55.288Z,9040.00
2019-02-05T12:29:55.325Z,8996.00
2019-02-05T12:30:55.466Z,8880.00
2019-02-05T12:31:55.401Z,8652.00
2019-02-05T12:32:55.451Z,8260.00
2019-02-05T12:33:55.481Z,7784.00
2019-02-05T12:34:55.519Z,7676.00
2019-02-05T12:35:55.557Z,7848.00
2019-02-05T12:36:55.595Z,7644.00
2019-02-05T12:37:55.633Z,7392.00
2019-02-05T12:38:55.671Z,7500.00
2019-02-05T12:39:55.711Z,7788.00
2019-02-05T12:40:55.757Z,8132.00
2019-02-05T12:41:55.799Z,7944.00
2019-02-05T12:42:55.829Z,7820.00
2019-02-05T12:43:55.874Z,8280.00